createdAt,value
2022-10-17T00:02:14.420Z,33.92
2022-10-17T00:04:41.155Z,33.05
2022-10-17T00:07:07.921Z,36.78
2022-10-17T00:09:34.614Z,34.38
2022-10-17T00:12:02.692Z,32.65
2022-10-17T00:14:29.458Z,32.67
2022-10-17T00:16:56.166Z,34.33
2022-10-17T00:19:22.932Z,34.88
2022-10-17T00:21:49.931Z,33.17
2022-10-17T00:24:16.701Z,34.63
2022-10-17T00:26:43.469Z,37.08
2022-10-17T00:29:10.255Z,34.17
2022-10-17T00:31:37.219Z,34.55
2022-10-17T00:34:03.962Z,33.67
2022-10-17T00:36:30.844Z,34.25
2022-10-17T00:38:59.172Z,33.83
2022-10-17T00:41:31.491Z,34.78
2022-10-17T00:44:02.381Z,34.20
2022-10-17T00:46:35.311Z,34.05
2022-10-17T00:51:42.760Z,32.55
2022-10-17T00:54:11.444Z,33.38
2022-10-17T00:56:40.375Z,33.13
2022-10-17T00:59:09.248Z,33.90
2022-10-17T01:01:36.307Z,34.55
2022-10-17T01:04:03.272Z,34.65
2022-10-17T01:06:29.982Z,34.20
2022-10-17T01:08:56.983Z,34.58
2022-10-17T01:11:32.918Z,33.38
2022-10-17T01:14:42.510Z,33.80
2022-10-17T01:17:18.608Z,34.28
2022-10-17T01:20:06.648Z,34.58
2022-10-17T01:22:36.905Z,36.00
2022-10-17T01:25:40.982Z,33.47
2022-10-17T01:28:27.318Z,33.92
2022-10-17T01:31:05.816Z,33.25
2022-10-17T01:33:44.059Z,33.85
2022-10-17T01:36:21.978Z,35.13
2022-10-17T01:39:08.897Z,33.83
2022-10-17T01:42:19.810Z,33.13
2022-10-17T01:47:31.527Z,32.50
2022-10-17T01:50:04.432Z,34.00
2022-10-17T01:52:40.195Z,33.83
2022-10-17T01:55:12.156Z,33.15
2022-10-17T01:57:46.336Z,33.85
2022-10-17T02:00:18.375Z,32.97
2022-10-17T02:02:48.289Z,34.35
2022-10-17T02:05:18.801Z,33.35
2022-10-17T02:07:45.489Z,33.78
2022-10-17T02:10:25.721Z,33.95
2022-10-17T02:13:01.055Z,33.85
2022-10-17T02:15:51.691Z,33.83
2022-10-17T02:18:27.430Z,32.47
2022-10-17T02:21:09.072Z,36.90
2022-10-17T02:23:46.245Z,32.40
2022-10-17T02:26:31.663Z,32.45
2022-10-17T02:29:12.973Z,31.85
2022-10-17T02:31:52.032Z,32.28
2022-10-17T02:34:25.984Z,33.55
2022-10-17T02:36:58.224Z,33.45
2022-10-17T02:39:27.304Z,33.50
2022-10-17T02:41:57.505Z,35.20
2022-10-17T02:44:26.287Z,32.13
2022-10-17T02:46:59.433Z,33.85
2022-10-17T02:49:35.780Z,33.40
2022-10-17T02:52:12.771Z,32.53
2022-10-17T02:55:12.384Z,34.28
2022-10-17T02:57:47.410Z,34.13
2022-10-17T03:00:16.526Z,34.17
2022-10-17T03:02:46.491Z,33.85
2022-10-17T03:05:16.844Z,33.20
2022-10-17T03:07:43.551Z,34.53
2022-10-17T03:10:10.621Z,34.95
2022-10-17T03:12:37.710Z,34.28
2022-10-17T03:15:05.296Z,33.45
2022-10-17T03:17:32.382Z,34.70
2022-10-17T03:19:59.304Z,34.05
2022-10-17T03:22:26.061Z,33.80
2022-10-17T03:24:52.828Z,35.03
2022-10-17T03:29:46.330Z,31.35
2022-10-17T03:32:13.014Z,33.50
2022-10-17T03:37:06.529Z,30.98
2022-10-17T03:39:33.496Z,33.63
2022-10-17T03:42:00.282Z,33.83
2022-10-17T03:44:27.076Z,33.58
2022-10-17T03:46:53.794Z,32.72
2022-10-17T03:49:20.501Z,32.33
2022-10-17T03:54:13.869Z,32.35
2022-10-17T03:56:40.614Z,33.92
2022-10-17T03:59:07.439Z,33.67
2022-10-17T04:01:34.250Z,33.45
2022-10-17T04:04:01.083Z,34.75
2022-10-17T04:06:27.874Z,33.10
2022-10-17T04:08:54.562Z,32.90
2022-10-17T04:11:21.800Z,33.17
2022-10-17T04:13:53.524Z,33.10
2022-10-17T04:16:20.323Z,32.67
2022-10-17T04:18:47.219Z,32.80
2022-10-17T04:21:14.712Z,33.97
2022-10-17T04:23:41.484Z,32.97
2022-10-17T04:26:08.298Z,33.80
2022-10-17T04:28:36.095Z,34.00
2022-10-17T04:31:09.896Z,31.98
2022-10-17T04:33:37.180Z,36.08
2022-10-17T04:36:10.175Z,33.40
2022-10-17T04:41:06.588Z,31.65
2022-10-17T04:43:36.104Z,32.97
2022-10-17T04:46:05.052Z,34.00
2022-10-17T04:48:32.382Z,33.67
2022-10-17T04:51:01.472Z,32.72
2022-10-17T04:53:28.750Z,32.20
2022-10-17T04:55:55.466Z,33.35
2022-10-17T04:58:22.582Z,33.60
2022-10-17T05:00:49.470Z,32.47
2022-10-17T05:03:16.381Z,34.55
2022-10-17T05:05:43.319Z,33.58
2022-10-17T05:08:11.275Z,34.53
2022-10-17T05:10:46.379Z,32.10
2022-10-17T05:13:13.384Z,32.17
2022-10-17T05:15:40.086Z,33.97
2022-10-17T05:20:34.247Z,33.40
2022-10-17T05:23:01.461Z,33.97
2022-10-17T05:25:28.197Z,33.13
2022-10-17T05:27:54.948Z,33.17
2022-10-17T05:30:21.940Z,32.97
2022-10-17T05:32:51.535Z,32.53
2022-10-17T05:35:18.238Z,33.92
2022-10-17T05:37:44.948Z,32.80
2022-10-17T05:40:11.867Z,35.42
2022-10-17T05:45:07.206Z,32.97
2022-10-17T05:47:33.894Z,32.40
2022-10-17T05:52:27.537Z,32.70
2022-10-17T05:54:54.561Z,33.42
2022-10-17T05:57:21.317Z,32.17
2022-10-17T05:59:48.071Z,33.90
2022-10-17T06:02:14.894Z,35.90
2022-10-17T06:04:45.615Z,33.08
2022-10-17T06:07:13.205Z,33.15
2022-10-17T06:09:40.195Z,37.42
2022-10-17T06:12:07.836Z,40.38
2022-10-17T06:14:35.144Z,33.08
2022-10-17T06:17:01.870Z,36.20
2022-10-17T06:19:28.723Z,35.15
2022-10-17T06:21:55.404Z,34.88
2022-10-17T06:26:50.123Z,31.60
2022-10-17T06:29:17.530Z,31.80
2022-10-17T06:31:44.332Z,32.80
2022-10-17T06:34:11.074Z,32.15
2022-10-17T06:36:37.787Z,33.20
2022-10-17T06:39:04.605Z,33.38
2022-10-17T06:41:31.328Z,33.95
2022-10-17T06:43:58.074Z,33.95
2022-10-17T06:46:26.808Z,33.78
2022-10-17T06:48:53.543Z,33.53
2022-10-17T06:51:20.295Z,32.72
2022-10-17T06:53:47.232Z,34.03
2022-10-17T06:56:13.955Z,35.35
2022-10-17T06:58:41.251Z,32.65
2022-10-17T07:01:12.992Z,32.30
2022-10-17T07:03:41.056Z,32.70
2022-10-17T07:06:11.219Z,34.47
2022-10-17T07:08:38.389Z,32.53
2022-10-17T07:11:16.841Z,33.70
2022-10-17T07:13:44.067Z,32.63
2022-10-17T07:16:12.356Z,33.15
2022-10-17T07:18:39.159Z,34.15
2022-10-17T07:21:07.758Z,33.53
2022-10-17T07:23:36.948Z,34.60
2022-10-17T07:26:07.560Z,33.10
2022-10-17T07:28:36.363Z,34.15
2022-10-17T07:31:08.401Z,34.80
2022-10-17T07:33:37.460Z,35.72
2022-10-17T07:36:05.622Z,34.03
2022-10-17T07:38:32.986Z,34.65
2022-10-17T07:41:01.985Z,33.90
2022-10-17T07:43:30.207Z,33.58
2022-10-17T07:45:57.257Z,34.30
2022-10-17T07:48:25.012Z,33.90
2022-10-17T07:50:51.898Z,35.10
2022-10-17T07:53:19.225Z,35.58
2022-10-17T07:55:46.482Z,35.50
2022-10-17T07:58:14.755Z,34.17
2022-10-17T08:00:41.607Z,35.00
2022-10-17T08:03:10.812Z,35.70
2022-10-17T08:05:37.536Z,36.58
2022-10-17T08:08:04.378Z,34.67
2022-10-17T08:10:31.145Z,34.67
2022-10-17T08:12:58.885Z,33.95
2022-10-17T08:15:29.433Z,33.92
2022-10-17T08:17:59.493Z,34.78
2022-10-17T08:20:26.825Z,35.60
2022-10-17T08:22:55.035Z,35.08
2022-10-17T08:25:22.676Z,35.42
2022-10-17T08:27:49.665Z,37.05
2022-10-17T08:30:17.780Z,35.65
2022-10-17T08:32:44.745Z,35.30
2022-10-17T08:35:11.658Z,34.70
2022-10-17T08:37:38.351Z,37.78
2022-10-17T08:40:05.790Z,36.40
2022-10-17T08:43:17.624Z,36.53
2022-10-17T08:45:56.404Z,35.10
2022-10-17T08:48:28.587Z,36.20
2022-10-17T08:51:06.501Z,36.45
2022-10-17T08:53:53.878Z,36.90
2022-10-17T08:56:50.043Z,38.25
2022-10-17T08:59:17.412Z,39.33
2022-10-17T09:02:12.339Z,38.38
2022-10-17T09:04:51.028Z,36.83
2022-10-17T09:07:44.057Z,37.95
2022-10-17T09:10:11.600Z,36.47
2022-10-17T09:13:08.009Z,37.63
2022-10-17T09:16:12.485Z,35.03
2022-10-17T09:19:04.477Z,37.50
2022-10-17T09:21:54.685Z,39.13
2022-10-17T09:24:28.831Z,36.40
2022-10-17T09:26:56.452Z,35.92
2022-10-17T09:29:25.338Z,34.83
2022-10-17T09:34:27.557Z,36.22
2022-10-17T09:36:54.862Z,36.50
2022-10-17T09:39:29.193Z,37.28
2022-10-17T09:41:58.931Z,35.75
2022-10-17T09:44:33.231Z,36.05
2022-10-17T09:47:17.548Z,38.10
2022-10-17T09:49:46.493Z,37.72
2022-10-17T09:52:16.076Z,38.63
2022-10-17T09:54:55.985Z,36.78
2022-10-17T09:57:23.185Z,37.97
2022-10-17T10:00:02.929Z,36.13
2022-10-17T10:02:31.667Z,37.85
2022-10-17T10:05:16.503Z,38.53
2022-10-17T10:07:48.924Z,37.25
2022-10-17T10:10:28.171Z,38.55
2022-10-17T10:13:20.232Z,37.85
2022-10-17T10:15:49.542Z,38.97
2022-10-17T10:18:25.340Z,39.78
2022-10-17T10:21:16.350Z,39.20
2022-10-17T10:24:04.295Z,38.97
2022-10-17T10:26:46.861Z,41.28
2022-10-17T10:29:34.215Z,38.83
2022-10-17T10:32:15.883Z,37.00
2022-10-17T10:35:06.052Z,39.97
2022-10-17T10:37:44.623Z,38.03
2022-10-17T10:40:19.044Z,37.50
2022-10-17T10:43:06.249Z,35.92
2022-10-17T10:45:54.356Z,35.28
2022-10-17T10:48:46.963Z,35.53
2022-10-17T10:51:17.915Z,36.03
2022-10-17T10:53:47.486Z,35.05
2022-10-17T10:56:28.249Z,34.80
2022-10-17T10:59:04.234Z,37.13
2022-10-17T11:01:48.477Z,36.92
2022-10-17T11:04:42.245Z,35.15
2022-10-17T11:07:16.042Z,33.75
2022-10-17T11:09:58.499Z,37.55
2022-10-17T11:12:31.534Z,36.65
2022-10-17T11:15:19.692Z,35.20
2022-10-17T11:17:56.907Z,33.38
2022-10-17T11:20:59.035Z,34.80
2022-10-17T11:23:31.568Z,33.60
2022-10-17T11:26:02.770Z,33.72
2022-10-17T11:28:30.374Z,36.22
2022-10-17T11:31:04.517Z,34.33
2022-10-17T11:34:01.027Z,35.33
2022-10-17T11:36:32.454Z,34.15
2022-10-17T11:39:08.852Z,34.80
2022-10-17T11:41:38.023Z,35.15
2022-10-17T11:44:40.294Z,32.45
2022-10-17T11:47:40.812Z,33.47
2022-10-17T11:53:34.557Z,33.33
2022-10-17T11:56:02.160Z,31.42
2022-10-17T11:58:39.399Z,33.85
2022-10-17T12:01:27.402Z,32.00
2022-10-17T12:04:18.152Z,34.05
2022-10-17T12:07:04.791Z,32.72
2022-10-17T12:09:55.349Z,36.50
2022-10-17T12:12:30.742Z,34.60
2022-10-17T12:15:13.759Z,35.22
2022-10-17T12:17:46.038Z,33.72
2022-10-17T12:20:24.655Z,34.33
2022-10-17T12:22:53.101Z,33.28
2022-10-17T12:25:33.508Z,34.70
2022-10-17T12:28:18.118Z,33.63
2022-10-17T12:31:17.510Z,32.95
2022-10-17T12:33:49.785Z,33.00
2022-10-17T12:36:37.321Z,31.90
2022-10-17T12:39:04.076Z,36.28
2022-10-17T12:41:39.554Z,34.35
2022-10-17T12:44:21.433Z,34.70
2022-10-17T12:46:49.719Z,32.83
2022-10-17T12:49:48.808Z,33.42
2022-10-17T12:52:31.217Z,32.72
2022-10-17T12:55:13.077Z,33.33
2022-10-17T12:57:43.526Z,35.22
2022-10-17T13:01:05.410Z,33.65
2022-10-17T13:03:44.397Z,33.45
2022-10-17T13:06:23.562Z,33.00
2022-10-17T13:09:08.829Z,32.72
2022-10-17T13:14:12.566Z,31.23
2022-10-17T13:16:51.970Z,30.10
2022-10-17T13:19:23.241Z,31.52
2022-10-17T13:22:06.307Z,31.33
2022-10-17T13:24:37.201Z,32.10
2022-10-17T13:27:05.294Z,31.38
2022-10-17T13:29:32.997Z,32.05
2022-10-17T13:32:04.821Z,32.53
2022-10-17T13:34:33.371Z,31.40
2022-10-17T13:37:08.403Z,33.63
2022-10-17T13:39:54.766Z,29.23
2022-10-17T13:42:30.077Z,31.00
2022-10-17T13:44:58.423Z,30.80
2022-10-17T13:47:30.566Z,30.65
2022-10-17T13:49:58.654Z,30.45
2022-10-17T13:52:29.469Z,31.05
2022-10-17T13:55:17.425Z,30.42
2022-10-17T13:57:44.557Z,30.13
2022-10-17T14:00:19.665Z,32.55
2022-10-17T14:02:46.770Z,29.17
2022-10-17T14:05:18.142Z,29.55
2022-10-17T14:08:11.431Z,29.88
2022-10-17T14:10:41.270Z,31.08
2022-10-17T14:13:19.707Z,29.98
2022-10-17T14:15:46.915Z,29.92
2022-10-17T14:18:29.921Z,29.45
2022-10-17T14:21:34.388Z,30.40
2022-10-17T14:23:49.349Z,28.95
2022-10-17T14:26:24.079Z,28.23
2022-10-17T14:29:06.460Z,31.20
2022-10-17T14:31:35.854Z,29.88
2022-10-17T14:34:04.744Z,29.38
2022-10-17T14:36:44.405Z,30.42
2022-10-17T14:39:20.833Z,30.75
2022-10-17T14:41:48.525Z,29.08
2022-10-17T14:44:21.649Z,28.85
2022-10-17T14:46:52.846Z,30.80
2022-10-17T14:49:38.742Z,27.38
2022-10-17T14:52:18.755Z,27.90
2022-10-17T14:54:48.613Z,28.73
2022-10-17T14:57:28.849Z,28.60
2022-10-17T14:59:56.914Z,26.38
2022-10-17T15:02:30.641Z,26.30
2022-10-17T15:04:57.814Z,25.60
2022-10-17T15:07:24.868Z,27.38
2022-10-17T15:09:53.376Z,25.85
2022-10-17T15:12:22.902Z,25.02
2022-10-17T15:14:50.644Z,26.10
2022-10-17T15:17:21.086Z,25.70
2022-10-17T15:19:48.859Z,25.90
2022-10-17T15:22:16.210Z,25.27
2022-10-17T15:24:43.305Z,25.00
2022-10-17T15:27:20.465Z,25.02
2022-10-17T15:29:47.890Z,23.83
2022-10-17T15:32:14.643Z,23.20
2022-10-17T15:34:41.888Z,23.60
2022-10-17T15:37:21.910Z,22.42
2022-10-17T15:39:53.526Z,23.08
2022-10-17T15:42:28.191Z,23.70
2022-10-17T15:44:55.564Z,23.10
2022-10-17T15:47:33.207Z,23.33
2022-10-17T15:50:01.300Z,22.35
2022-10-17T15:52:28.230Z,22.42
2022-10-17T15:54:57.291Z,23.30
2022-10-17T15:57:29.482Z,21.15
2022-10-17T15:59:58.771Z,23.17
2022-10-17T16:02:26.120Z,22.90
2022-10-17T16:04:53.153Z,22.13
2022-10-17T16:07:20.985Z,21.70
2022-10-17T16:09:48.075Z,22.55
2022-10-17T16:14:49.828Z,22.70
2022-10-17T16:17:17.663Z,22.55
2022-10-17T16:19:47.272Z,22.92
2022-10-17T16:22:19.923Z,23.88
2022-10-17T16:27:13.409Z,22.58
2022-10-17T16:29:40.108Z,22.73
2022-10-17T16:32:06.928Z,23.52
2022-10-17T16:34:33.651Z,22.83
2022-10-17T16:37:00.448Z,22.70
2022-10-17T16:41:57.741Z,22.90
2022-10-17T16:44:25.452Z,23.15
2022-10-17T16:46:52.262Z,22.33
2022-10-17T16:49:19.005Z,21.60
2022-10-17T16:51:45.758Z,22.75
2022-10-17T16:54:12.553Z,22.23
2022-10-17T16:56:39.275Z,23.02
2022-10-17T16:59:06.032Z,22.98
2022-10-17T17:01:32.837Z,23.48
2022-10-17T17:03:59.656Z,23.55
2022-10-17T17:06:28.762Z,22.17
2022-10-17T17:08:59.231Z,23.83
2022-10-17T17:11:27.868Z,22.80
2022-10-17T17:13:58.958Z,24.42
2022-10-17T17:16:26.792Z,26.13
2022-10-17T17:18:59.054Z,25.20
2022-10-17T17:21:27.737Z,25.40
2022-10-17T17:23:59.197Z,25.58
2022-10-17T17:26:28.216Z,26.25
2022-10-17T17:28:57.238Z,25.88
2022-10-17T17:31:26.893Z,29.10
2022-10-17T17:36:26.877Z,26.35
2022-10-17T17:38:59.373Z,26.13
2022-10-17T17:41:26.801Z,26.48
2022-10-17T17:43:54.347Z,27.08
2022-10-17T17:46:22.713Z,26.83
2022-10-17T17:48:50.471Z,26.60
2022-10-17T17:51:19.776Z,27.30
2022-10-17T17:53:47.135Z,26.73
2022-10-17T17:56:20.039Z,26.05
2022-10-17T17:58:53.675Z,24.98
2022-10-17T18:01:22.483Z,26.80
2022-10-17T18:03:52.211Z,26.92
2022-10-17T18:06:20.335Z,26.95
2022-10-17T18:08:49.926Z,26.50
2022-10-17T18:11:19.635Z,27.15
2022-10-17T18:13:52.862Z,26.52
2022-10-17T18:16:19.586Z,26.20
2022-10-17T18:18:46.289Z,28.35
2022-10-17T18:21:14.142Z,26.90
2022-10-17T18:23:42.422Z,26.35
2022-10-17T18:26:10.200Z,26.90
2022-10-17T18:28:39.160Z,25.98
2022-10-17T18:31:07.895Z,27.20
2022-10-17T18:33:34.724Z,27.92
2022-10-17T18:36:07.252Z,25.63
2022-10-17T18:38:34.198Z,26.83
2022-10-17T18:41:12.181Z,25.75
2022-10-17T18:43:40.733Z,25.85
2022-10-17T18:46:13.899Z,26.92
2022-10-17T18:48:44.500Z,26.80
2022-10-17T18:51:12.481Z,26.85
2022-10-17T18:53:44.011Z,28.55
2022-10-17T18:56:11.748Z,27.40
2022-10-17T18:58:39.597Z,28.30
2022-10-17T19:01:09.772Z,28.67
2022-10-17T19:03:37.187Z,28.75
2022-10-17T19:06:07.423Z,28.10
2022-10-17T19:08:35.156Z,28.23
2022-10-17T19:11:10.052Z,29.17
2022-10-17T19:13:37.153Z,29.33
2022-10-17T19:16:15.685Z,28.77
2022-10-17T19:18:42.960Z,30.23
2022-10-17T19:21:11.394Z,29.35
2022-10-17T19:23:38.934Z,30.08
2022-10-17T19:26:10.654Z,30.10
2022-10-17T19:28:41.514Z,28.98
2022-10-17T19:31:08.816Z,29.92
2022-10-17T19:33:36.575Z,30.70
2022-10-17T19:36:09.784Z,31.02
2022-10-17T19:38:36.936Z,32.70
2022-10-17T19:41:12.201Z,30.10
2022-10-17T19:43:40.893Z,29.90
2022-10-17T19:46:13.761Z,30.50
2022-10-17T19:51:09.041Z,30.50
2022-10-17T19:53:35.768Z,31.23
2022-10-17T19:56:03.255Z,31.17
2022-10-17T19:58:30.214Z,30.45
2022-10-17T20:01:01.022Z,33.92
2022-10-17T20:03:28.888Z,31.15
2022-10-17T20:05:55.830Z,31.08
2022-10-17T20:08:22.965Z,30.55
2022-10-17T20:10:49.724Z,29.58
2022-10-17T20:13:16.497Z,30.52
2022-10-17T20:15:43.256Z,30.90
2022-10-17T20:18:10.227Z,29.40
2022-10-17T20:20:37.718Z,25.35
2022-10-17T20:23:04.887Z,24.60
2022-10-17T20:25:33.345Z,25.48
2022-10-17T20:28:00.131Z,25.42
2022-10-17T20:30:26.913Z,25.02
2022-10-17T20:32:55.615Z,26.90
2022-10-17T20:35:22.659Z,26.95
2022-10-17T20:37:49.609Z,26.08
2022-10-17T20:40:34.150Z,25.63
2022-10-17T20:43:01.846Z,24.33
2022-10-17T20:45:43.666Z,27.75
2022-10-17T20:48:16.054Z,24.45
2022-10-17T20:50:43.911Z,23.80
2022-10-17T20:53:35.611Z,25.83
2022-10-17T20:56:17.182Z,24.60
2022-10-17T20:58:43.944Z,25.17
2022-10-17T21:01:11.092Z,28.05
2022-10-17T21:03:42.336Z,28.70
2022-10-17T21:06:12.960Z,29.00
2022-10-17T21:08:40.057Z,27.77
2022-10-17T21:11:12.317Z,29.17
2022-10-17T21:13:39.550Z,30.35
2022-10-17T21:16:15.132Z,30.38
2022-10-17T21:18:42.524Z,28.48
2022-10-17T21:21:12.382Z,30.27
2022-10-17T21:23:40.344Z,28.75
2022-10-17T21:26:09.312Z,28.80
2022-10-17T21:28:37.506Z,28.80
2022-10-17T21:31:13.190Z,30.15
2022-10-17T21:33:41.123Z,29.23
2022-10-17T21:36:08.966Z,28.60
2022-10-17T21:38:39.573Z,28.63
2022-10-17T21:41:07.657Z,28.40
2022-10-17T21:43:35.352Z,29.98
2022-10-17T21:46:06.907Z,28.35
2022-10-17T21:48:34.498Z,28.50
2022-10-17T21:51:03.644Z,28.15
2022-10-17T21:53:30.957Z,27.98
2022-10-17T21:56:05.524Z,26.73
2022-10-17T21:58:32.788Z,25.48
2022-10-17T22:01:14.633Z,27.92
2022-10-17T22:03:45.881Z,25.52
2022-10-17T22:09:11.551Z,25.02
2022-10-17T22:11:38.316Z,24.88
2022-10-17T22:14:14.745Z,24.33
2022-10-17T22:16:41.889Z,24.77
2022-10-17T22:19:09.209Z,25.48
2022-10-17T22:21:36.647Z,23.17
2022-10-17T22:24:06.417Z,23.08
2022-10-17T22:26:35.129Z,23.35
2022-10-17T22:29:02.757Z,21.63
2022-10-17T22:31:29.519Z,23.25
2022-10-17T22:33:56.483Z,22.08
2022-10-17T22:36:23.597Z,20.25
2022-10-17T22:38:50.676Z,21.15
2022-10-17T22:41:17.586Z,19.90
2022-10-17T22:43:44.405Z,21.60
2022-10-17T22:46:13.480Z,21.55
2022-10-17T22:48:40.451Z,21.38
2022-10-17T22:51:07.362Z,20.75
2022-10-17T22:53:35.171Z,21.52
2022-10-17T22:56:07.496Z,19.98
2022-10-17T22:58:35.333Z,22.48
2022-10-17T23:01:03.150Z,23.38
2022-10-17T23:03:31.323Z,26.10
2022-10-17T23:05:58.505Z,24.73
2022-10-17T23:08:27.050Z,25.55
2022-10-17T23:10:54.045Z,26.90
2022-10-17T23:13:21.932Z,28.52
2022-10-17T23:15:53.839Z,25.40
2022-10-17T23:18:21.589Z,26.20
2022-10-17T23:20:48.666Z,26.00
2022-10-17T23:23:15.668Z,26.58
2022-10-17T23:25:42.826Z,26.48
2022-10-17T23:28:10.015Z,26.48
2022-10-17T23:30:37.726Z,27.58
2022-10-17T23:33:05.124Z,26.45
2022-10-17T23:35:32.125Z,26.27
2022-10-17T23:37:59.438Z,24.38
2022-10-17T23:40:26.571Z,24.15
2022-10-17T23:42:53.282Z,24.67
2022-10-17T23:45:20.154Z,22.23
2022-10-17T23:47:46.921Z,22.60
2022-10-17T23:50:13.658Z,23.85
2022-10-17T23:52:40.335Z,24.90
2022-10-17T23:55:08.045Z,23.40
2022-10-17T23:57:34.941Z,22.55
